RKPK/PUS METAR and TAF weather

Enter ICAO airport designator
Station Type Date Time Source
RKPK METAR 2021/08/04 19:00 UTC NOAA

RKPK 041900Z 02006KT CAVOK 27/22 Q1007


Station Type Date Time Source
RKPK Decoded METAR 2021/08/04 19:00 UTC NOAA

Pusan / Kimhae International Airport, Korea, South (RKPK) 35-11N 128-56E 6M
Aug 04, 2021 - 03:00 PM EDT / 2021.08.04 1900 UTC
Wind: from the NNE (020 degrees) at 7 MPH (6 KT):0
Visibility: greater than 7 mile(s):0
Temperature: 80 F (27 C)
Dew Point: 71 F (22 C)
Relative Humidity: 74%
Pressure (altimeter): 29.74 in. Hg (1007 hPa)
ob: RKPK 041900Z 02006KT CAVOK 27/22 Q1007
cycle: 19

Station Type Date Time Source
RKPK TAF 2021/08/04 18:09 UTC NOAA

TAF RKPK 041700Z 0418/0524 36006KT CAVOK TX36/0506Z TN26/0521Z
BECMG 0500/0501 18010KT
BECMG 0509/0510 36006KT

Example: see airport list